createdAt,value
2023-01-23T00:01:44.126Z,6.55
2023-01-23T00:04:14.223Z,6.68
2023-01-23T00:06:43.671Z,6.30
2023-01-23T00:09:12.116Z,6.75
2023-01-23T00:11:40.853Z,6.50
2023-01-23T00:14:10.679Z,5.65
2023-01-23T00:16:39.513Z,5.22
2023-01-23T00:19:07.955Z,6.38
2023-01-23T00:21:38.092Z,5.88
2023-01-23T00:24:07.733Z,5.90
2023-01-23T00:26:36.514Z,6.20
2023-01-23T00:29:05.041Z,5.85
2023-01-23T00:31:38.563Z,6.22
2023-01-23T00:34:12.011Z,5.80
2023-01-23T00:36:43.707Z,5.65
2023-01-23T00:39:21.352Z,5.68
2023-01-23T00:41:50.420Z,6.13
2023-01-23T00:44:19.155Z,5.38
2023-01-23T00:46:48.832Z,5.75
2023-01-23T00:49:19.857Z,5.55
2023-01-23T00:51:50.705Z,5.90
2023-01-23T00:54:21.500Z,5.68
2023-01-23T00:56:50.282Z,5.22
2023-01-23T00:59:18.863Z,5.05
2023-01-23T01:01:47.857Z,5.45
2023-01-23T01:04:16.345Z,5.72
2023-01-23T01:06:45.135Z,5.20
2023-01-23T01:09:13.634Z,4.78
2023-01-23T01:11:42.519Z,6.13
2023-01-23T01:14:11.090Z,6.32
2023-01-23T01:16:45.471Z,5.55
2023-01-23T01:19:15.022Z,5.03
2023-01-23T01:21:43.975Z,5.70
2023-01-23T01:24:13.508Z,5.15
2023-01-23T01:26:42.574Z,5.28
2023-01-23T01:29:11.523Z,5.45
2023-01-23T01:31:40.358Z,5.35
2023-01-23T01:34:08.989Z,4.50
2023-01-23T01:36:38.492Z,5.65
2023-01-23T01:39:06.982Z,6.05
2023-01-23T01:41:36.963Z,5.53
2023-01-23T01:44:05.455Z,5.53
2023-01-23T01:46:34.431Z,5.57
2023-01-23T01:49:09.063Z,5.97
2023-01-23T01:51:56.031Z,5.50
2023-01-23T01:54:44.269Z,5.40
2023-01-23T01:57:33.128Z,5.90
2023-01-23T02:00:18.674Z,5.18
2023-01-23T02:03:01.212Z,5.10
2023-01-23T02:05:42.191Z,5.00
2023-01-23T02:08:38.272Z,5.55
2023-01-23T02:11:07.963Z,5.97
2023-01-23T02:13:39.098Z,5.93
2023-01-23T02:16:10.911Z,5.18
2023-01-23T02:18:45.650Z,5.43
2023-01-23T02:21:15.397Z,5.25
2023-01-23T02:24:15.116Z,5.07
2023-01-23T02:26:45.802Z,4.97
2023-01-23T02:29:15.785Z,5.10
2023-01-23T02:31:53.914Z,6.10
2023-01-23T02:34:26.503Z,5.47
2023-01-23T02:37:00.548Z,5.10
2023-01-23T02:39:29.678Z,5.38
2023-01-23T02:41:58.603Z,5.07
2023-01-23T02:44:41.620Z,5.32
2023-01-23T02:47:12.599Z,5.20
2023-01-23T02:49:43.352Z,5.38
2023-01-23T02:52:12.593Z,5.60
2023-01-23T02:54:41.449Z,4.97
2023-01-23T02:57:13.298Z,5.60
2023-01-23T03:00:01.011Z,6.07
2023-01-23T03:02:29.972Z,4.88
2023-01-23T03:04:58.892Z,5.15
2023-01-23T03:07:29.843Z,5.50
2023-01-23T03:09:58.735Z,5.57
2023-01-23T03:12:28.190Z,5.00
2023-01-23T03:14:58.211Z,4.63
2023-01-23T03:17:27.412Z,5.20
2023-01-23T03:19:57.939Z,5.15
2023-01-23T03:22:27.494Z,5.65
2023-01-23T03:24:58.172Z,5.65
2023-01-23T03:27:26.891Z,5.32
2023-01-23T03:30:13.747Z,5.00
2023-01-23T03:32:45.937Z,5.78
2023-01-23T03:35:20.530Z,6.03
2023-01-23T03:37:52.563Z,4.95
2023-01-23T03:40:43.995Z,5.53
2023-01-23T03:43:16.215Z,4.97
2023-01-23T03:45:51.243Z,4.93
2023-01-23T03:48:19.953Z,5.75
2023-01-23T03:50:50.995Z,5.07
2023-01-23T03:53:22.786Z,5.32
2023-01-23T03:55:51.831Z,4.88
2023-01-23T03:58:21.090Z,4.90
2023-01-23T04:00:50.319Z,5.20
2023-01-23T04:03:19.152Z,5.30
2023-01-23T04:05:48.895Z,4.78
2023-01-23T04:08:19.201Z,5.25
2023-01-23T04:10:49.392Z,4.93
2023-01-23T04:13:18.452Z,4.75
2023-01-23T04:15:48.913Z,4.57
2023-01-23T04:18:17.936Z,4.43
2023-01-23T04:20:47.972Z,5.50
2023-01-23T04:23:16.781Z,4.85
2023-01-23T04:25:45.614Z,4.97
2023-01-23T04:28:15.739Z,5.07
2023-01-23T04:30:47.027Z,5.00
2023-01-23T04:33:22.115Z,4.38
2023-01-23T04:35:57.208Z,4.30
2023-01-23T04:38:28.559Z,4.35
2023-01-23T04:40:57.833Z,4.13
2023-01-23T04:43:26.401Z,4.50
2023-01-23T04:45:56.980Z,4.07
2023-01-23T04:48:28.132Z,4.20
2023-01-23T04:50:57.068Z,4.22
2023-01-23T04:53:25.672Z,3.80
2023-01-23T04:56:01.311Z,4.00
2023-01-23T04:58:29.924Z,4.60
2023-01-23T05:01:08.331Z,4.20
2023-01-23T05:03:39.170Z,4.03
2023-01-23T05:06:08.260Z,3.60
2023-01-23T05:08:37.171Z,4.07
2023-01-23T05:11:16.574Z,3.65
2023-01-23T05:13:46.051Z,3.53
2023-01-23T05:16:15.723Z,3.63
2023-01-23T05:19:16.114Z,3.60
2023-01-23T05:21:47.023Z,3.80
2023-01-23T05:24:22.189Z,3.50
2023-01-23T05:26:52.123Z,3.78
2023-01-23T05:29:22.013Z,3.33
2023-01-23T05:32:16.952Z,3.28
2023-01-23T05:34:45.564Z,3.15
2023-01-23T05:37:20.739Z,2.97
2023-01-23T05:39:53.650Z,3.13
2023-01-23T05:42:37.875Z,3.60
2023-01-23T05:45:26.996Z,3.17
2023-01-23T05:47:56.343Z,2.78
2023-01-23T05:50:25.688Z,3.33
2023-01-23T05:52:55.743Z,3.45
2023-01-23T05:55:24.643Z,3.25
2023-01-23T05:57:53.343Z,3.05
2023-01-23T06:00:40.513Z,3.35
2023-01-23T06:03:34.962Z,3.00
2023-01-23T06:06:24.946Z,3.10
2023-01-23T06:08:54.716Z,3.53
2023-01-23T06:11:23.395Z,3.15
2023-01-23T06:13:54.223Z,3.00
2023-01-23T06:16:23.714Z,3.60
2023-01-23T06:18:53.087Z,3.05
2023-01-23T06:21:23.291Z,3.58
2023-01-23T06:23:51.802Z,2.90
2023-01-23T06:26:23.959Z,2.97
2023-01-23T06:28:52.422Z,3.55
2023-01-23T06:31:21.324Z,3.30
2023-01-23T06:33:56.180Z,3.35
2023-01-23T06:36:30.691Z,3.20
2023-01-23T06:39:00.558Z,3.25
2023-01-23T06:41:38.274Z,3.38
2023-01-23T06:44:09.047Z,2.97
2023-01-23T06:46:41.694Z,2.63
2023-01-23T06:49:11.301Z,3.47
2023-01-23T06:51:41.534Z,3.50
2023-01-23T06:54:14.804Z,3.50
2023-01-23T06:56:43.699Z,3.30
2023-01-23T06:59:13.103Z,3.58
2023-01-23T07:01:43.301Z,3.50
2023-01-23T07:04:14.423Z,3.28
2023-01-23T07:06:47.374Z,3.60
2023-01-23T07:09:17.955Z,2.70
2023-01-23T07:11:56.593Z,3.05
2023-01-23T07:14:27.383Z,3.22
2023-01-23T07:19:27.536Z,3.60
2023-01-23T07:22:01.823Z,3.03
2023-01-23T07:24:31.982Z,3.20
2023-01-23T07:27:00.832Z,3.13
2023-01-23T07:29:29.340Z,3.40
2023-01-23T07:32:01.562Z,3.38
2023-01-23T07:34:29.912Z,3.40
2023-01-23T07:37:00.163Z,3.20
2023-01-23T07:39:31.443Z,3.15
2023-01-23T07:42:00.310Z,2.95
2023-01-23T07:44:30.468Z,3.38
2023-01-23T07:46:59.194Z,3.75
2023-01-23T07:49:27.680Z,3.72
2023-01-23T07:51:56.484Z,3.63
2023-01-23T07:54:27.221Z,2.90
2023-01-23T07:56:57.084Z,2.95
2023-01-23T07:59:25.583Z,3.60
2023-01-23T08:01:55.668Z,2.72
2023-01-23T08:04:25.744Z,4.38
2023-01-23T08:06:54.515Z,3.28
2023-01-23T08:09:23.172Z,3.22
2023-01-23T08:11:52.831Z,2.85
2023-01-23T08:14:21.273Z,3.10
2023-01-23T08:16:53.070Z,3.30
2023-01-23T08:19:21.597Z,2.67
2023-01-23T08:21:50.414Z,2.95
2023-01-23T08:24:18.892Z,2.83
2023-01-23T08:26:47.837Z,2.95
2023-01-23T08:29:16.245Z,3.25
2023-01-23T08:31:45.002Z,3.53
2023-01-23T08:34:15.446Z,3.35
2023-01-23T08:36:46.193Z,3.08
2023-01-23T08:39:14.836Z,2.83
2023-01-23T08:41:43.532Z,3.33
2023-01-23T08:44:12.229Z,3.00
2023-01-23T08:46:41.112Z,3.33
2023-01-23T08:49:11.239Z,3.78
2023-01-23T08:51:44.055Z,2.88
2023-01-23T08:54:12.769Z,3.17
2023-01-23T08:56:44.392Z,3.22
2023-01-23T08:59:12.850Z,2.70
2023-01-23T09:01:41.541Z,2.83
2023-01-23T09:04:09.956Z,3.13
2023-01-23T09:06:39.156Z,3.03
2023-01-23T09:09:07.551Z,2.53
2023-01-23T09:11:38.531Z,3.22
2023-01-23T09:14:07.020Z,3.47
2023-01-23T09:16:35.837Z,3.53
2023-01-23T09:19:04.414Z,3.50
2023-01-23T09:21:33.164Z,3.70
2023-01-23T09:24:01.612Z,3.78
2023-01-23T09:26:30.494Z,3.72
2023-01-23T09:28:58.843Z,3.28
2023-01-23T09:31:27.589Z,3.78
2023-01-23T09:33:56.036Z,3.30
2023-01-23T09:36:41.397Z,3.72
2023-01-23T09:39:11.120Z,3.53
2023-01-23T09:41:41.692Z,3.58
2023-01-23T09:44:39.586Z,4.03
2023-01-23T09:47:23.825Z,3.50
2023-01-23T09:50:00.660Z,3.80
2023-01-23T09:52:43.615Z,4.25
2023-01-23T09:55:49.285Z,3.15
2023-01-23T09:59:05.531Z,3.75
2023-01-23T10:01:34.024Z,4.35
2023-01-23T10:04:02.990Z,4.07
2023-01-23T10:07:06.709Z,3.53
2023-01-23T10:12:47.612Z,3.80
2023-01-23T10:15:38.730Z,3.00
2023-01-23T10:18:13.307Z,3.90
2023-01-23T10:21:13.514Z,3.85
2023-01-23T10:24:38.021Z,3.92
2023-01-23T10:27:24.342Z,3.80
2023-01-23T10:30:38.202Z,3.50
2023-01-23T10:33:17.614Z,3.60
2023-01-23T10:35:53.715Z,3.20
2023-01-23T10:38:40.393Z,2.58
2023-01-23T10:41:15.313Z,3.53
2023-01-23T10:43:55.361Z,2.97
2023-01-23T10:46:44.272Z,3.00
2023-01-23T10:49:24.562Z,3.13
2023-01-23T10:51:53.211Z,3.15
2023-01-23T10:54:34.003Z,3.25
2023-01-23T10:57:08.244Z,3.00
2023-01-23T10:59:39.833Z,3.90
2023-01-23T11:02:14.957Z,3.53
2023-01-23T11:04:46.265Z,3.33
2023-01-23T11:07:23.061Z,3.13
2023-01-23T11:09:57.526Z,3.08
2023-01-23T11:12:33.055Z,2.60
2023-01-23T11:15:24.159Z,2.97
2023-01-23T11:17:53.910Z,2.72
2023-01-23T11:20:39.261Z,3.50
2023-01-23T11:23:13.660Z,2.67
2023-01-23T11:25:45.363Z,3.15
2023-01-23T11:28:35.533Z,2.75
2023-01-23T11:31:21.897Z,2.03
2023-01-23T11:33:58.088Z,2.47
2023-01-23T11:36:48.863Z,2.80
2023-01-23T11:39:37.162Z,1.92
2023-01-23T11:42:08.061Z,2.65
2023-01-23T11:44:45.704Z,2.15
2023-01-23T11:47:41.204Z,2.05
2023-01-23T11:50:15.649Z,1.63
2023-01-23T11:53:07.416Z,2.38
2023-01-23T11:56:10.015Z,1.90
2023-01-23T11:59:10.379Z,2.27
2023-01-23T12:02:20.183Z,2.05
2023-01-23T12:05:13.645Z,1.95
2023-01-23T12:08:20.371Z,2.20
2023-01-23T12:11:16.814Z,2.53
2023-01-23T12:14:05.070Z,2.28
2023-01-23T12:16:48.582Z,2.50
2023-01-23T12:19:29.246Z,2.65
2023-01-23T12:22:00.954Z,2.20
2023-01-23T12:24:41.706Z,1.90
2023-01-23T12:27:34.627Z,2.05
2023-01-23T12:30:27.670Z,2.30
2023-01-23T12:33:20.496Z,2.47
2023-01-23T12:36:10.843Z,2.40
2023-01-23T12:38:55.702Z,2.40
2023-01-23T12:41:36.877Z,2.58
2023-01-23T12:44:12.956Z,1.92
2023-01-23T12:46:54.164Z,2.15
2023-01-23T12:49:45.815Z,2.30
2023-01-23T12:52:14.453Z,2.00
2023-01-23T12:54:53.894Z,1.65
2023-01-23T12:57:52.700Z,1.83
2023-01-23T13:01:06.264Z,2.42
2023-01-23T13:03:55.652Z,2.03
2023-01-23T13:06:28.901Z,1.70
2023-01-23T13:09:17.377Z,2.25
2023-01-23T13:12:22.713Z,1.40
2023-01-23T13:18:02.316Z,1.45
2023-01-23T13:20:56.954Z,1.42
2023-01-23T13:23:35.927Z,1.65
2023-01-23T13:26:31.598Z,1.27
2023-01-23T13:29:02.716Z,1.50
2023-01-23T13:31:47.396Z,1.58
2023-01-23T13:34:16.773Z,1.30
2023-01-23T13:36:46.904Z,1.58
2023-01-23T13:39:19.987Z,1.27
2023-01-23T13:42:12.934Z,1.67
2023-01-23T13:45:16.436Z,1.08
2023-01-23T15:06:42.638Z,0.70
2023-01-23T15:09:17.063Z,0.90
2023-01-23T15:11:46.200Z,0.52
2023-01-23T15:14:27.332Z,0.60
2023-01-23T15:17:03.852Z,0.70
2023-01-23T15:19:32.900Z,0.40
2023-01-23T15:22:28.484Z,0.77
2023-01-23T15:24:57.557Z,0.60
2023-01-23T15:27:33.313Z,0.57
2023-01-23T15:30:31.574Z,0.60
2023-01-23T15:33:06.517Z,0.40
2023-01-23T15:35:36.807Z,0.50
2023-01-23T15:38:08.633Z,0.60
2023-01-23T15:43:12.496Z,0.70
2023-01-23T15:45:41.480Z,0.43
2023-01-23T15:48:10.151Z,0.65
2023-01-23T15:50:39.228Z,0.57
2023-01-23T15:53:14.207Z,0.90
2023-01-23T15:55:43.165Z,0.52
2023-01-23T15:58:15.124Z,0.40
2023-01-23T16:00:44.545Z,0.60
2023-01-23T16:03:15.153Z,0.60
2023-01-23T16:05:44.114Z,0.43
2023-01-23T16:08:20.312Z,0.68
2023-01-23T16:10:50.495Z,0.75
2023-01-23T16:13:19.224Z,0.50
2023-01-23T16:15:48.934Z,0.65
2023-01-23T16:18:19.009Z,0.47
2023-01-23T16:20:48.080Z,0.47
2023-01-23T16:23:24.951Z,0.70
2023-01-23T16:25:54.124Z,0.70
2023-01-23T16:28:24.266Z,0.40
2023-01-23T16:30:53.577Z,0.47
2023-01-23T16:33:22.376Z,0.47
2023-01-23T16:35:51.772Z,0.40
2023-01-23T16:38:28.512Z,0.52
2023-01-23T16:41:00.706Z,0.25
2023-01-23T16:43:29.458Z,0.30
2023-01-23T16:45:58.581Z,0.32
2023-01-23T16:48:28.759Z,0.63
2023-01-23T16:51:11.863Z,0.20
2023-01-23T16:53:42.931Z,0.40
2023-01-23T16:56:23.849Z,0.35
2023-01-23T16:58:52.988Z,0.47
2023-01-23T17:01:23.228Z,0.50
2023-01-23T17:03:59.505Z,0.95
2023-01-23T17:06:29.620Z,0.50
2023-01-23T17:08:58.378Z,0.40
2023-01-23T17:11:35.590Z,0.30
2023-01-23T17:14:16.323Z,0.50
2023-01-23T17:16:45.457Z,0.50
2023-01-23T17:19:18.477Z,0.52
2023-01-23T17:21:47.525Z,0.38
2023-01-23T17:24:17.235Z,0.60
2023-01-23T17:26:46.448Z,0.30
2023-01-23T17:29:15.498Z,0.70
2023-01-23T17:31:44.755Z,0.55
2023-01-23T17:34:24.291Z,0.50
2023-01-23T17:36:54.566Z,0.50
2023-01-23T17:39:23.359Z,0.35
2023-01-23T17:41:54.077Z,0.70
2023-01-23T17:44:22.707Z,0.55
2023-01-23T17:46:54.978Z,0.68
2023-01-23T17:49:30.503Z,0.70
2023-01-23T17:52:02.162Z,0.55
2023-01-23T17:54:30.862Z,0.52
2023-01-23T17:57:00.035Z,0.65
2023-01-23T17:59:28.734Z,0.50
2023-01-23T18:01:58.959Z,0.40
2023-01-23T18:04:27.780Z,0.52
2023-01-23T18:06:57.920Z,0.60
2023-01-23T18:09:26.542Z,0.55
2023-01-23T18:11:56.061Z,0.52
2023-01-23T18:14:42.370Z,0.45
2023-01-23T18:17:50.269Z,0.68
2023-01-23T18:20:20.933Z,0.38
2023-01-23T18:22:51.667Z,0.30
2023-01-23T18:25:22.219Z,0.50
2023-01-23T18:27:55.777Z,0.63
2023-01-23T18:30:42.978Z,0.52
2023-01-23T18:33:21.802Z,0.63
2023-01-23T18:35:57.227Z,0.73
2023-01-23T18:38:37.716Z,0.80
2023-01-23T18:41:28.259Z,0.38
2023-01-23T18:44:15.548Z,0.47
2023-01-23T18:46:44.457Z,0.60
2023-01-23T18:49:21.495Z,0.77
2023-01-23T18:52:03.164Z,0.68
2023-01-23T18:54:51.937Z,1.10
2023-01-23T18:57:29.731Z,1.08
2023-01-23T19:00:20.177Z,1.42
2023-01-23T19:02:52.068Z,2.33
2023-01-23T19:05:33.915Z,1.73
2023-01-23T19:08:03.011Z,2.97
2023-01-23T19:10:47.558Z,2.88
2023-01-23T19:13:22.677Z,4.05
2023-01-23T19:16:19.420Z,3.47
2023-01-23T19:18:53.112Z,3.58
2023-01-23T19:21:27.020Z,3.55
2023-01-23T19:24:03.319Z,4.65
2023-01-23T19:26:40.871Z,3.97
2023-01-23T19:29:26.141Z,4.05
2023-01-23T19:32:09.910Z,4.18
2023-01-23T19:34:39.016Z,4.00
2023-01-23T19:37:08.392Z,2.88
2023-01-23T19:39:37.170Z,2.97
2023-01-23T19:42:06.319Z,3.70
2023-01-23T19:44:40.480Z,3.33
2023-01-23T19:47:35.318Z,3.25
2023-01-23T19:50:04.797Z,4.32
2023-01-23T19:52:35.723Z,3.80
2023-01-23T19:55:05.165Z,3.40
2023-01-23T19:57:34.653Z,4.03
2023-01-23T20:00:04.295Z,3.35
2023-01-23T20:02:40.939Z,3.00
2023-01-23T20:05:10.372Z,3.22
2023-01-23T20:07:39.759Z,3.65
2023-01-23T20:10:09.371Z,3.03
2023-01-23T20:12:57.054Z,2.15
2023-01-23T20:15:27.383Z,2.88
2023-01-23T20:17:58.262Z,2.90
2023-01-23T20:20:27.753Z,2.88
2023-01-23T20:22:56.981Z,2.40
2023-01-23T20:25:25.820Z,2.47
2023-01-23T20:27:55.051Z,2.85
2023-01-23T20:30:24.390Z,2.45
2023-01-23T20:32:54.530Z,1.95
2023-01-23T20:35:24.239Z,2.30
2023-01-23T20:37:54.354Z,2.47
2023-01-23T20:40:24.093Z,2.70
2023-01-23T20:42:54.224Z,2.05
2023-01-23T20:45:24.816Z,1.80
2023-01-23T20:47:58.560Z,2.03
2023-01-23T20:50:28.361Z,2.50
2023-01-23T20:53:17.181Z,2.05
2023-01-23T20:55:46.300Z,1.65
2023-01-23T20:58:34.133Z,2.30
2023-01-23T21:01:03.180Z,2.42
2023-01-23T21:03:32.682Z,1.90
2023-01-23T21:06:01.491Z,2.05
2023-01-23T21:08:30.620Z,1.65
2023-01-23T21:10:59.472Z,2.05
2023-01-23T21:13:28.652Z,2.10
2023-01-23T21:15:58.950Z,1.45
2023-01-23T21:18:27.925Z,2.50
2023-01-23T21:21:03.186Z,1.95
2023-01-23T21:23:32.371Z,1.98
2023-01-23T21:26:01.758Z,1.98
2023-01-23T21:28:33.454Z,1.92
2023-01-23T21:31:12.784Z,1.90
2023-01-23T21:33:49.443Z,1.50
2023-01-23T21:36:23.538Z,1.92
2023-01-23T21:38:53.089Z,1.05
2023-01-23T21:41:21.911Z,2.30
2023-01-23T21:43:50.983Z,1.60
2023-01-23T21:46:19.595Z,1.70
2023-01-23T21:48:49.648Z,1.67
2023-01-23T21:51:20.485Z,1.38
2023-01-23T21:53:50.191Z,1.30
2023-01-23T21:56:20.693Z,1.65
2023-01-23T21:58:50.861Z,1.38
2023-01-23T22:01:39.834Z,1.85
2023-01-23T22:04:18.985Z,1.40
2023-01-23T22:06:47.622Z,1.80
2023-01-23T22:09:18.430Z,1.55
2023-01-23T22:11:47.484Z,1.50
2023-01-23T22:14:17.460Z,1.80
2023-01-23T22:16:49.137Z,1.60
2023-01-23T22:19:24.728Z,1.33
2023-01-23T22:21:57.381Z,1.75
2023-01-23T22:24:26.285Z,1.23
2023-01-23T22:26:54.989Z,1.40
2023-01-23T22:29:24.176Z,1.20
2023-01-23T22:31:52.888Z,1.65
2023-01-23T22:34:21.826Z,1.23
2023-01-23T22:36:50.439Z,1.55
2023-01-23T22:39:20.287Z,1.27
2023-01-23T22:41:50.664Z,1.20
2023-01-23T22:44:20.747Z,1.85
2023-01-23T22:46:51.783Z,0.95
2023-01-23T22:49:20.895Z,1.00
2023-01-23T22:51:49.635Z,1.23
2023-01-23T22:54:18.773Z,1.35
2023-01-23T22:56:47.319Z,1.70
2023-01-23T22:59:16.370Z,1.23
2023-01-23T23:01:44.956Z,1.25
2023-01-23T23:04:13.749Z,1.23
2023-01-23T23:06:42.273Z,1.20
2023-01-23T23:09:11.037Z,1.17
2023-01-23T23:11:39.671Z,1.73
2023-01-23T23:14:09.745Z,1.25
2023-01-23T23:16:38.688Z,1.15
2023-01-23T23:19:07.535Z,1.13
2023-01-23T23:21:36.981Z,1.25
2023-01-23T23:24:07.818Z,1.33
2023-01-23T23:26:36.399Z,1.38
2023-01-23T23:29:05.284Z,1.40
2023-01-23T23:31:33.864Z,1.20
2023-01-23T23:34:02.857Z,0.77
2023-01-23T23:36:31.280Z,1.00
2023-01-23T23:39:00.079Z,1.20
2023-01-23T23:41:28.628Z,0.90
2023-01-23T23:43:57.466Z,1.08
2023-01-23T23:46:26.017Z,0.98
2023-01-23T23:48:54.753Z,1.20
2023-01-23T23:51:23.508Z,0.85
2023-01-23T23:53:52.307Z,1.20
2023-01-23T23:56:27.059Z,1.30
2023-01-23T23:58:56.098Z,1.13
